Flight Track Log - Related Links

Times and Time Zones

All times are in EDT time to prevent confusion due to time zone crossing. See the UCA5001 flight status page for this flight to view local times or setup timezone preferences in your user account.

Time Position Orientation Groundspeed Altitude Reporting Facility
EDT Latitude Longitude Course Direction KTS MPH feet Rate Location/Type
Fri 03:48:29 PM 38.9333 -77.5000 218° Southwest 128 147 1,500  Level Potomac TRACON
Fri 03:49:29 PM 38.9000 -77.5333 218° Southwest 152 175 2,900 1,550 Climbing Potomac TRACON
Fri 03:50:29 PM 38.8667 -77.5833 229° Southwest 153 176 4,600 1,686 Climbing Potomac TRACON
Fri 03:51:30 PM 38.8333 -77.6167 218° Southwest 154 177 6,300 1,241 Climbing Potomac TRACON
Fri 03:52:25 PM 38.8167 -77.6500 237° Southwest 173 199 7,000 788 Climbing Potomac TRACON
Fri 03:53:09 PM 38.7825 -77.6875 221° Southwest 204 235 7,600 1,314 Climbing Washington Center
Fri 03:54:10 PM 38.7442 -77.7369 225° Southwest 183 211 9,300 1,488 Climbing Washington Center
Fri 03:55:10 PM 38.7058 -77.7836 224° Southwest 175 201 10,600 1,240 Climbing Washington Center
Fri 03:56:11 PM 38.6736 -77.8281 227° Southwest 183 211 11,800 1,240 Climbing Washington Center
Fri 03:57:11 PM 38.6375 -77.8719 224° Southwest 188 216 13,100 1,091 Climbing Washington Center
Fri 03:58:12 PM 38.6094 -77.9217 234° Southwest 188 216 14,000 458 Climbing Washington Center
Fri 03:59:09 PM 38.5728 -77.9844 233° Southwest 205 236 14,000  Level Washington Center
Fri 04:00:10 PM 38.5339 -78.0494 233° Southwest 221 254 14,000  Level Washington Center
Fri 04:01:11 PM 38.4950 -78.1144 233° Southwest 231 266 14,000  Level Washington Center
Fri 04:02:09 PM 38.4539 -78.1847 233° Southwest 243 280 14,000  Level Washington Center
Fri 04:03:09 PM 38.4108 -78.2519 231° Southwest 243 280 14,000  Level Washington Center
Fri 04:04:10 PM 38.3697 -78.3194 232° Southwest 243 280 14,000  Level Washington Center
Fri 04:05:11 PM 38.3283 -78.3894 233° Southwest 243 280 14,000  Level Washington Center
Fri 04:06:09 PM 38.2872 -78.4567 232° Southwest 243 280 14,000  Level Washington Center
Fri 04:07:09 PM 38.2417 -78.5264 230° Southwest 243 280 14,000  Level Washington Center
Fri 04:08:10 PM 38.2025 -78.5961 234° Southwest 243 280 14,000  Level Washington Center
Fri 04:09:10 PM 38.1611 -78.6631 232° Southwest 243 280 14,000  Level Washington Center
Fri 04:10:11 PM 38.1264 -78.7197 232° Southwest 243 280 14,000  Level Washington Center
Fri 04:11:10 PM 38.0828 -78.7864 230° Southwest 243 280 14,000  Level Washington Center
Fri 04:12:10 PM 38.0433 -78.8533 233° Southwest 243 280 14,000  Level Washington Center
Fri 04:13:11 PM 37.9997 -78.9225 231° Southwest 243 280 14,000  Level Washington Center
Fri 04:14:11 PM 37.9583 -78.9867 231° Southwest 243 280 14,000  Level Washington Center
Fri 04:15:09 PM 37.9169 -79.0533 232° Southwest 243 280 14,000  Level Washington Center
Fri 04:16:10 PM 37.8753 -79.1172 230° Southwest 243 280 14,000  Level Washington Center
Fri 04:17:11 PM 37.8381 -79.1758 231° Southwest 243 280 14,000 50 Level Washington Center
Fri 04:18:11 PM 37.7967 -79.2422 232° Southwest 243 280 14,100 50 Climbing Washington Center
Fri 04:19:12 PM 37.7569 -79.3086 233° Southwest 243 280 14,100 -153 Level Washington Center
Fri 04:20:09 PM 37.7175 -79.3697 231° Southwest 243 280 13,800 -763 Descending Washington Center
Fri 04:21:10 PM 37.6672 -79.4406 228° Southwest 248 285 12,600 -1,438 Descending Washington Center
Fri 04:22:10 PM 37.6297 -79.5042 233° Southwest 253 291 10,900 -1,884 Descending Washington Center
Fri 04:23:11 PM 37.5792 -79.5803 230° Southwest 253 291 8,800 -1,884 Descending Washington Center
Fri 04:24:11 PM 37.5439 -79.6386 233° Southwest 253 291 7,100 -1,525 Descending Washington Center
Fri 04:25:09 PM 37.4975 -79.7147 232° Southwest 247 284 5,800 -1,210 Descending Washington Center
Fri 04:26:10 PM 37.4600 -79.7728 231° Southwest 247 284 4,700 -1,041 Descending Washington Center
Fri 04:27:10 PM 37.4178 -79.8489 235° Southwest 247 284 3,700 -992 Descending Washington Center
Fri 04:28:11 PM 37.3825 -79.8992 229° Southwest 232 267 2,700 -992 Descending Washington Center
Fri 04:29:11 PM 37.3517 -79.9419 228° Southwest 206 237 1,700 -1,000 Descending Washington Center

Login

Don't have an account? Register now (free) for customized features, flight alerts, and more!